LFMTLFLY

Guest
Details From LFMT - Montpellier/Mediterranee
To LFLY - Lyon Bron
Flight Number -
Tags generated
Created
Modified
Stats Distance 136 nm / 252 km
Max Altitude 8,300 ft / 2,530 m
Waypoints 3
Social Downloads 8
Likes 0
Share

Download

Looking for another format? Having issues loading an existing format? Contact us
Advertisement - Login to hide

Notes

Basic altitude profile: - Ascent Rate: 2500ft/min - Ascent Speed: 250kts - Cruise Altitude: 35000ft - Cruise Speed: 420kts - Descent Rate: 1500ft/min - Descent Speed: 250kts Options: - Use NATs: yes - Use PACOTS: yes - Use low airways: yes - Use high airways: yes

Route

LFMT NELEN LFLY

ID Type Via Altitude (ft/m) Position (lat/lon) Dist (leg/tot) Name
O LFMT APT - 0 / 0 43.57626 / 3.96326 - / 0 nm Montpellier/Mediterranee
NELEN FIX - 8,300 / 2,530 45.11861 / 4.61167 96 / 96 nm
O LFLY APT - 0 / 0 45.72717 / 4.94427 39 / 135 nm Lyon Bron

Altitude Profile

Advertisement - Login to hide

LFMT

Details ICAO LFMT (MPL)
Name Montpellier/Mediterranee
Region France
Timezone Europe/Paris (UTC+2.0)
Stats Elevation 17 ft / 5 m (AMSL)
Location 43.576200° 3.963250°
Runways 2
Magnetic Variation 1.666° E

METAR

LFMT 240930Z AUTO 14007KT 9999 BKN017 25/21 Q1010 NOSIG

Decode

TAF

TAF LFMT 240800Z 2409/2509 12007KT 9999 FEW008 BKN017 BECMG 2409/2411 CAVOK BECMG 2412/2414 20010KT BECMG 2418/2420 31008KT

Decode

Departure Runways

ID Width Length Bearing (true/mag) Surface Threshold Overrun Markings Lighting
12L 164 ft / 50 m 8,539 ft / 2,603 m 124.83° / 123.17° ASPHALT 0 ft / 0 m 0 ft / 0 m PREC-APP CENTERLINE EDGE THRESHOLD
12R 98 ft / 30 m 3,612 ft / 1,101 m 124.80° / 123.14° ASPHALT 328 ft / 100 m 0 ft / 0 m VISUAL
30L 98 ft / 30 m 3,612 ft / 1,101 m 304.81° / 303.14° ASPHALT 0 ft / 0 m 0 ft / 0 m VISUAL
30R 164 ft / 50 m 8,539 ft / 2,603 m 304.85° / 303.18° ASPHALT 0 ft / 0 m 0 ft / 0 m PREC-APP CENTERLINE EDGE THRESHOLD ALSF-I

LFLY

Details ICAO LFLY (LYN)
Name Lyon Bron
Region France
Timezone Europe/Paris (UTC+2.0)
Stats Elevation 659 ft / 201 m (AMSL)
Location 45.727200° 4.944290°
Runways 1
Magnetic Variation 1.886° E

METAR

LFLY 240930Z AUTO 01003KT 310V050 9999 ///TCU 25/17 Q1009 TEMPO 34015G30KT 2000 TSRA SCT015 BKN040CB

Decode

TAF

TAF LFLY 240500Z 2406/2506 36006KT CAVOK PROB40 TEMPO 2406/2411 19010KT FEW050CB TEMPO 2411/2417 34015G30KT 2000 TSRA SCT015 BKN040CB BECMG 2418/2420 VRB03KT BKN040

Decode

Destination Runways

ID Width Length Bearing (true/mag) Surface Threshold Overrun Markings Lighting
16 148 ft / 45 m 5,975 ft / 1,821 m 163.45° / 161.56° ASPHALT 984 ft / 300 m 0 ft / 0 m PREC-APP EDGE THRESHOLD REIL-OMNI
34 148 ft / 45 m 5,975 ft / 1,821 m 343.45° / 341.57° ASPHALT 984 ft / 300 m 0 ft / 0 m PREC-APP EDGE THRESHOLD REIL-OMNI

Approach Navaids

Runway Type Ident Frequency Range Bearing (true/mag) Slope Elevation
16 DME LBO 109.95 MHz 18 nm / 33 km - - 680 ft / 207 m (AMSL)
34 DME LY 111.30 MHz 18 nm / 33 km - - 715 ft / 218 m (AMSL)

Popular Alternatives